createdAt,value
2018-07-22T00:00:03.373Z,0.00
2018-07-22T00:01:03.373Z,0.00
2018-07-22T00:02:03.389Z,0.00
2018-07-22T00:03:03.383Z,0.00
2018-07-22T00:04:03.380Z,0.00
2018-07-22T00:05:03.384Z,0.00
2018-07-22T00:06:03.389Z,0.00
2018-07-22T00:07:03.392Z,0.00
2018-07-22T00:08:03.388Z,0.00
2018-07-22T00:09:03.389Z,0.00
2018-07-22T00:10:03.394Z,0.00
2018-07-22T00:11:03.393Z,0.00
2018-07-22T00:12:03.395Z,0.00
2018-07-22T00:13:03.397Z,0.00
2018-07-22T00:14:03.418Z,0.00
2018-07-22T00:15:03.406Z,0.00
2018-07-22T00:16:03.407Z,0.00
2018-07-22T00:17:03.411Z,0.00
2018-07-22T00:18:03.410Z,0.00
2018-07-22T00:19:03.417Z,0.00
2018-07-22T00:20:03.413Z,0.00
2018-07-22T00:21:03.416Z,0.00
2018-07-22T00:22:03.419Z,0.00
2018-07-22T00:23:03.423Z,0.00
2018-07-22T00:24:03.423Z,0.00
2018-07-22T00:25:03.430Z,0.00
2018-07-22T00:26:03.433Z,0.00
2018-07-22T00:27:03.428Z,0.00
2018-07-22T00:28:03.432Z,0.00
2018-07-22T00:29:03.446Z,0.00
2018-07-22T00:30:03.435Z,0.00
2018-07-22T00:31:03.482Z,0.00
2018-07-22T00:32:03.441Z,0.00
2018-07-22T00:33:03.443Z,0.00
2018-07-22T00:34:03.440Z,0.00
2018-07-22T00:35:03.461Z,0.00
2018-07-22T00:36:03.447Z,0.00
2018-07-22T00:37:03.451Z,0.00
2018-07-22T00:38:03.453Z,0.00
2018-07-22T00:39:03.491Z,0.00
2018-07-22T00:40:03.456Z,0.00
2018-07-22T00:41:03.463Z,0.00
2018-07-22T00:42:03.460Z,0.00
2018-07-22T00:43:03.463Z,0.00
2018-07-22T00:44:03.471Z,0.00
2018-07-22T00:45:03.466Z,0.00
2018-07-22T00:46:03.467Z,0.00
2018-07-22T00:47:03.472Z,0.00
2018-07-22T00:48:03.471Z,0.00
2018-07-22T00:49:03.475Z,0.00
2018-07-22T00:50:03.477Z,0.00
2018-07-22T00:51:03.481Z,0.00
2018-07-22T00:52:03.481Z,0.00
2018-07-22T00:53:03.483Z,0.00
2018-07-22T00:54:03.486Z,0.00
2018-07-22T00:55:03.485Z,0.00
2018-07-22T00:56:03.493Z,0.00
2018-07-22T00:57:03.489Z,0.00
2018-07-22T00:58:03.493Z,0.00
2018-07-22T00:59:03.494Z,0.00
2018-07-22T01:00:03.587Z,0.00
2018-07-22T01:01:03.502Z,0.00
2018-07-22T01:02:03.503Z,0.00
2018-07-22T01:03:03.504Z,0.00
2018-07-22T01:04:03.508Z,0.00
2018-07-22T01:05:03.508Z,0.00
2018-07-22T01:06:03.516Z,0.00
2018-07-22T01:07:03.513Z,0.00
2018-07-22T01:08:03.516Z,0.00
2018-07-22T01:09:03.514Z,0.00
2018-07-22T01:10:03.525Z,0.00
2018-07-22T01:11:03.520Z,0.00
2018-07-22T01:12:03.521Z,0.00
2018-07-22T01:13:03.523Z,0.00
2018-07-22T01:14:03.533Z,0.00
2018-07-22T01:15:03.524Z,0.00
2018-07-22T01:16:03.530Z,0.00
2018-07-22T01:17:03.526Z,0.00
2018-07-22T01:18:03.530Z,0.00
2018-07-22T01:19:03.533Z,0.00
2018-07-22T01:20:03.541Z,0.00
2018-07-22T01:21:03.539Z,0.00
2018-07-22T01:22:03.541Z,0.00
2018-07-22T01:23:03.543Z,0.00
2018-07-22T01:24:03.544Z,0.00
2018-07-22T01:25:03.550Z,0.00
2018-07-22T01:26:03.552Z,0.00
2018-07-22T01:27:03.552Z,0.00
2018-07-22T01:28:03.551Z,0.00
2018-07-22T01:29:03.555Z,0.00
2018-07-22T01:30:03.558Z,0.00
2018-07-22T01:31:03.559Z,0.00
2018-07-22T01:32:03.562Z,0.00
2018-07-22T01:33:03.565Z,0.00
2018-07-22T01:34:03.564Z,0.00
2018-07-22T01:35:03.565Z,0.00
2018-07-22T01:36:03.567Z,0.00
2018-07-22T01:37:03.568Z,0.00
2018-07-22T01:38:03.580Z,0.00
2018-07-22T01:39:03.569Z,0.00
2018-07-22T01:40:03.572Z,0.00
2018-07-22T01:41:03.579Z,0.00
2018-07-22T01:42:03.578Z,0.00
2018-07-22T01:43:03.580Z,0.00
2018-07-22T01:44:03.586Z,0.00
2018-07-22T01:45:03.585Z,0.00
2018-07-22T01:46:03.586Z,0.00
2018-07-22T01:47:03.586Z,0.00
2018-07-22T01:48:03.589Z,0.00
2018-07-22T01:49:03.590Z,0.00
2018-07-22T01:50:03.593Z,0.00
2018-07-22T01:51:03.595Z,0.00
2018-07-22T01:52:03.594Z,0.00
2018-07-22T01:53:03.596Z,0.00
2018-07-22T01:54:03.605Z,0.00
2018-07-22T01:55:03.605Z,0.00
2018-07-22T01:56:03.602Z,0.00
2018-07-22T01:57:03.604Z,0.00
2018-07-22T01:58:03.607Z,0.00
2018-07-22T01:59:03.602Z,0.00
2018-07-22T02:00:03.606Z,0.00
2018-07-22T02:01:03.611Z,0.00
2018-07-22T02:02:03.612Z,0.00
2018-07-22T02:03:03.615Z,0.00
2018-07-22T02:04:03.614Z,0.00
2018-07-22T02:05:03.615Z,0.00
2018-07-22T02:06:03.621Z,0.00
2018-07-22T02:07:03.628Z,0.00
2018-07-22T02:08:03.622Z,0.00
2018-07-22T02:09:03.620Z,0.00
2018-07-22T02:10:03.622Z,0.00
2018-07-22T02:11:03.651Z,0.00
2018-07-22T02:12:03.626Z,0.00
2018-07-22T02:13:03.630Z,0.00
2018-07-22T02:14:03.631Z,0.00
2018-07-22T02:15:03.630Z,0.00
2018-07-22T02:16:03.632Z,0.00
2018-07-22T02:17:03.637Z,0.00
2018-07-22T02:18:03.639Z,0.00
2018-07-22T02:19:03.633Z,0.00
2018-07-22T02:20:03.638Z,0.00
2018-07-22T02:21:03.642Z,0.00
2018-07-22T02:22:03.643Z,0.00
2018-07-22T02:23:03.643Z,0.00
2018-07-22T02:24:03.644Z,0.00
2018-07-22T02:25:03.649Z,0.00
2018-07-22T02:26:03.648Z,0.00
2018-07-22T02:27:03.649Z,0.00
2018-07-22T02:28:03.654Z,0.00
2018-07-22T02:29:03.651Z,0.00
2018-07-22T02:30:03.654Z,0.00
2018-07-22T02:31:03.660Z,4.00
2018-07-22T02:32:03.655Z,4.00
2018-07-22T02:33:03.665Z,4.00
2018-07-22T02:34:03.660Z,0.00
2018-07-22T02:35:03.660Z,4.00
2018-07-22T02:36:03.663Z,4.00
2018-07-22T02:37:03.664Z,4.00
2018-07-22T02:38:03.660Z,4.00
2018-07-22T02:39:03.663Z,4.00
2018-07-22T02:40:03.667Z,4.00
2018-07-22T02:41:03.674Z,4.00
2018-07-22T02:42:03.672Z,8.00
2018-07-22T02:43:03.672Z,8.00
2018-07-22T02:44:03.675Z,8.00
2018-07-22T02:45:03.673Z,8.00
2018-07-22T02:46:03.677Z,8.00
2018-07-22T02:47:03.678Z,12.00
2018-07-22T02:48:03.679Z,16.00
2018-07-22T02:49:03.686Z,16.00
2018-07-22T02:50:03.690Z,16.00
2018-07-22T02:51:03.682Z,20.00
2018-07-22T02:52:03.681Z,20.00
2018-07-22T02:53:03.682Z,24.00
2018-07-22T02:54:03.684Z,28.00
2018-07-22T02:55:03.684Z,28.00
2018-07-22T02:56:03.690Z,36.00
2018-07-22T02:57:03.685Z,40.00
2018-07-22T02:58:03.690Z,44.00
2018-07-22T02:59:03.691Z,48.00
2018-07-22T03:00:03.694Z,52.00
2018-07-22T03:01:03.692Z,60.00
2018-07-22T03:02:03.694Z,64.00
2018-07-22T03:03:03.693Z,68.00
2018-07-22T03:04:03.696Z,72.00
2018-07-22T03:05:03.698Z,80.00
2018-07-22T03:06:03.697Z,88.00
2018-07-22T03:07:03.695Z,96.00
2018-07-22T03:08:03.704Z,108.00
2018-07-22T03:09:03.702Z,116.00
2018-07-22T03:10:03.702Z,128.00
2018-07-22T03:11:03.702Z,140.00
2018-07-22T03:12:03.704Z,152.00
2018-07-22T03:13:03.706Z,168.00
2018-07-22T03:14:03.708Z,180.00
2018-07-22T03:15:03.880Z,196.00
2018-07-22T03:16:03.706Z,208.00
2018-07-22T03:17:03.713Z,224.00
2018-07-22T03:18:03.710Z,240.00
2018-07-22T03:19:03.715Z,264.00
2018-07-22T03:20:03.714Z,280.00
2018-07-22T03:21:03.714Z,296.00
2018-07-22T03:22:03.717Z,320.00
2018-07-22T03:23:03.716Z,348.00
2018-07-22T03:24:03.718Z,364.00
2018-07-22T03:25:03.719Z,384.00
2018-07-22T03:26:03.723Z,400.00
2018-07-22T03:27:03.722Z,416.00
2018-07-22T03:28:03.722Z,424.00
2018-07-22T03:29:03.726Z,432.00
2018-07-22T03:30:03.725Z,440.00
2018-07-22T03:31:03.726Z,444.00
2018-07-22T03:32:03.730Z,444.00
2018-07-22T03:33:03.725Z,452.00
2018-07-22T03:34:03.726Z,456.00
2018-07-22T03:35:03.730Z,456.00
2018-07-22T03:36:03.731Z,452.00
2018-07-22T03:37:03.733Z,452.00
2018-07-22T03:38:03.734Z,460.00
2018-07-22T03:39:03.739Z,472.00
2018-07-22T03:40:03.735Z,480.00
2018-07-22T03:41:03.737Z,496.00
2018-07-22T03:42:03.740Z,520.00
2018-07-22T03:43:03.739Z,544.00
2018-07-22T03:44:03.742Z,564.00
2018-07-22T03:45:03.741Z,596.00
2018-07-22T03:46:03.743Z,644.00
2018-07-22T03:47:03.747Z,684.00
2018-07-22T03:48:03.744Z,712.00
2018-07-22T03:49:03.745Z,732.00
2018-07-22T03:50:03.809Z,752.00
2018-07-22T03:51:03.743Z,772.00
2018-07-22T03:52:03.747Z,800.00
2018-07-22T03:53:03.750Z,828.00
2018-07-22T03:54:03.751Z,856.00
2018-07-22T03:55:03.752Z,872.00
2018-07-22T03:56:03.752Z,888.00
2018-07-22T03:57:03.755Z,904.00
2018-07-22T03:58:03.757Z,920.00
2018-07-22T03:59:03.756Z,940.00
2018-07-22T04:00:03.757Z,968.00
2018-07-22T04:01:03.757Z,1020.00
2018-07-22T04:02:03.760Z,1080.00
2018-07-22T04:03:03.759Z,1144.00
2018-07-22T04:04:03.761Z,1200.00
2018-07-22T04:05:03.762Z,1252.00
2018-07-22T04:06:03.765Z,1280.00
2018-07-22T04:07:03.783Z,1284.00
2018-07-22T04:08:03.765Z,1276.00
2018-07-22T04:09:03.769Z,1276.00
2018-07-22T04:10:03.763Z,1284.00
2018-07-22T04:11:03.769Z,1300.00
2018-07-22T04:12:03.768Z,1324.00
2018-07-22T04:13:03.771Z,1360.00
2018-07-22T04:14:03.771Z,1404.00
2018-07-22T04:15:03.776Z,1464.00
2018-07-22T04:16:03.774Z,1532.00
2018-07-22T04:17:03.772Z,1592.00
2018-07-22T04:18:03.778Z,1636.00
2018-07-22T04:19:03.777Z,1668.00
2018-07-22T04:20:03.782Z,1692.00
2018-07-22T04:21:03.780Z,1708.00
2018-07-22T04:22:03.782Z,1716.00
2018-07-22T04:23:03.783Z,1716.00
2018-07-22T04:24:03.787Z,1720.00
2018-07-22T04:25:03.788Z,1720.00
2018-07-22T04:26:03.823Z,1732.00
2018-07-22T04:27:03.789Z,1744.00
2018-07-22T04:28:03.789Z,1772.00
2018-07-22T04:29:03.790Z,1800.00
2018-07-22T04:30:03.793Z,1840.00
2018-07-22T04:31:03.793Z,1888.00
2018-07-22T04:32:03.795Z,1924.00
2018-07-22T04:33:03.795Z,1976.00
2018-07-22T04:34:03.799Z,2032.00
2018-07-22T04:35:03.799Z,2088.00
2018-07-22T04:36:03.798Z,2132.00
2018-07-22T04:37:03.796Z,2176.00
2018-07-22T04:38:03.804Z,2208.00
2018-07-22T04:39:03.806Z,2248.00
2018-07-22T04:40:03.813Z,2276.00
2018-07-22T04:41:03.808Z,2312.00
2018-07-22T04:42:03.810Z,2340.00
2018-07-22T04:43:03.808Z,2360.00
2018-07-22T04:44:03.811Z,2380.00
2018-07-22T04:45:03.817Z,2408.00
2018-07-22T04:46:03.816Z,2456.00
2018-07-22T04:47:03.810Z,2520.00
2018-07-22T04:48:03.814Z,2604.00
2018-07-22T04:49:03.819Z,2684.00
2018-07-22T04:50:03.821Z,2764.00
2018-07-22T04:51:03.822Z,2824.00
2018-07-22T04:52:03.824Z,2880.00
2018-07-22T04:53:03.828Z,2944.00
2018-07-22T04:54:03.827Z,3000.00
2018-07-22T04:55:03.831Z,3044.00
2018-07-22T04:56:03.832Z,3056.00
2018-07-22T04:57:03.832Z,3056.00
2018-07-22T04:58:03.834Z,3064.00
2018-07-22T04:59:03.837Z,3052.00
2018-07-22T05:00:03.833Z,3040.00
2018-07-22T05:01:03.842Z,3028.00
2018-07-22T05:02:03.845Z,3016.00
2018-07-22T05:03:03.841Z,3000.00
2018-07-22T05:04:03.844Z,3012.00
2018-07-22T05:05:03.846Z,3040.00
2018-07-22T05:06:03.846Z,3076.00
2018-07-22T05:07:03.849Z,3108.00
2018-07-22T05:08:03.848Z,3148.00
2018-07-22T05:09:03.852Z,3184.00
2018-07-22T05:10:03.856Z,3228.00
2018-07-22T05:11:03.856Z,3280.00
2018-07-22T05:12:03.857Z,3328.00
2018-07-22T05:13:03.862Z,3372.00
2018-07-22T05:14:03.863Z,3420.00
2018-07-22T05:15:03.866Z,3468.00
2018-07-22T05:16:03.861Z,3524.00
2018-07-22T05:17:03.867Z,3576.00
2018-07-22T05:18:03.870Z,3628.00
2018-07-22T05:19:03.877Z,3676.00
2018-07-22T05:20:03.876Z,3704.00
2018-07-22T05:21:03.876Z,3724.00
2018-07-22T05:22:03.876Z,3728.00
2018-07-22T05:23:03.881Z,3728.00
2018-07-22T05:24:03.881Z,3724.00
2018-07-22T05:25:03.887Z,3712.00
2018-07-22T05:26:03.886Z,3700.00
2018-07-22T05:27:03.894Z,3680.00
2018-07-22T05:28:03.889Z,3656.00
2018-07-22T05:29:03.893Z,3632.00
2018-07-22T05:30:03.894Z,3612.00
2018-07-22T05:31:03.897Z,3588.00
2018-07-22T05:32:03.899Z,3564.00
2018-07-22T05:33:03.900Z,3544.00
2018-07-22T05:34:03.904Z,3532.00
2018-07-22T05:35:03.905Z,3512.00
2018-07-22T05:36:03.914Z,3496.00
2018-07-22T05:37:03.910Z,3484.00
2018-07-22T05:38:03.915Z,3476.00
2018-07-22T05:39:03.918Z,3468.00
2018-07-22T05:40:03.922Z,3464.00
2018-07-22T05:41:03.919Z,3468.00
2018-07-22T05:42:03.942Z,3472.00
2018-07-22T05:43:03.928Z,3480.00
2018-07-22T05:44:03.927Z,3500.00
2018-07-22T05:45:03.928Z,3516.00
2018-07-22T05:46:03.931Z,3536.00
2018-07-22T05:47:03.933Z,3564.00
2018-07-22T05:48:03.935Z,3600.00
2018-07-22T05:49:03.938Z,3628.00
2018-07-22T05:50:03.939Z,3668.00
2018-07-22T05:51:03.940Z,3692.00
2018-07-22T05:52:03.941Z,3708.00
2018-07-22T05:53:03.970Z,3728.00
2018-07-22T05:54:04.021Z,3740.00
2018-07-22T05:55:03.950Z,3744.00
2018-07-22T05:56:03.953Z,3748.00
2018-07-22T05:57:03.957Z,3756.00
2018-07-22T05:58:03.963Z,3772.00
2018-07-22T05:59:03.960Z,3792.00
2018-07-22T06:00:03.963Z,3828.00
2018-07-22T06:01:03.966Z,3888.00
2018-07-22T06:02:03.967Z,3964.00
2018-07-22T06:03:03.995Z,4060.00
2018-07-22T06:04:03.974Z,4160.00
2018-07-22T06:05:03.975Z,4280.00
2018-07-22T06:06:03.980Z,4400.00
2018-07-22T06:07:03.980Z,4532.00
2018-07-22T06:08:03.985Z,4668.00
2018-07-22T06:09:03.992Z,4808.00
2018-07-22T06:10:03.988Z,4956.00
2018-07-22T06:11:03.990Z,5100.00
2018-07-22T06:12:04.051Z,5232.00
2018-07-22T06:13:03.998Z,5348.00
2018-07-22T06:14:04.000Z,5444.00
2018-07-22T06:15:04.000Z,5516.00
2018-07-22T06:16:04.000Z,5572.00
2018-07-22T06:17:04.007Z,5604.00
2018-07-22T06:18:04.011Z,5624.00
2018-07-22T06:19:04.013Z,5636.00
2018-07-22T06:20:04.043Z,5628.00
2018-07-22T06:21:04.019Z,5616.00
2018-07-22T06:22:04.021Z,5604.00
2018-07-22T06:23:04.026Z,5600.00
2018-07-22T06:24:04.028Z,5604.00
2018-07-22T06:25:04.033Z,5608.00
2018-07-22T06:26:04.037Z,5616.00
2018-07-22T06:27:04.035Z,5640.00
2018-07-22T06:28:04.039Z,5696.00
2018-07-22T06:29:04.042Z,5768.00
2018-07-22T06:30:04.046Z,5860.00
2018-07-22T06:31:04.050Z,5996.00
2018-07-22T06:32:04.054Z,6128.00
2018-07-22T06:33:04.060Z,6260.00
2018-07-22T06:34:04.061Z,6412.00
2018-07-22T06:35:04.053Z,6504.00
2018-07-22T06:36:04.066Z,6604.00
2018-07-22T06:37:04.066Z,6680.00
2018-07-22T06:38:04.063Z,6732.00
2018-07-22T06:39:04.074Z,6804.00
2018-07-22T06:40:04.075Z,6896.00
2018-07-22T06:41:04.129Z,6996.00
2018-07-22T06:42:04.085Z,7136.00
2018-07-22T06:43:04.081Z,7220.00
2018-07-22T06:44:04.084Z,7208.00
2018-07-22T06:45:04.090Z,7240.00
2018-07-22T06:46:04.112Z,7320.00
2018-07-22T06:47:04.100Z,7416.00
2018-07-22T06:48:04.102Z,7552.00
2018-07-22T06:49:04.118Z,7764.00
2018-07-22T06:50:04.108Z,8140.00
2018-07-22T06:51:04.114Z,8264.00
2018-07-22T06:52:04.115Z,8288.00
2018-07-22T06:53:04.120Z,8516.00
2018-07-22T06:54:04.123Z,8688.00
2018-07-22T06:55:04.128Z,8864.00
2018-07-22T06:56:04.130Z,8936.00
2018-07-22T06:57:04.145Z,9316.00
2018-07-22T06:58:04.136Z,9404.00
2018-07-22T06:59:04.139Z,9520.00
2018-07-22T07:00:04.146Z,9960.00
2018-07-22T07:01:04.149Z,10868.00
2018-07-22T07:02:04.153Z,12480.00
2018-07-22T07:03:04.157Z,13128.00
2018-07-22T07:04:04.155Z,13364.00
2018-07-22T07:05:04.198Z,14100.00
2018-07-22T07:06:04.166Z,14888.00
2018-07-22T07:07:04.172Z,16672.00
2018-07-22T07:08:04.173Z,19008.00
2018-07-22T07:09:04.373Z,20640.00
2018-07-22T07:10:04.182Z,22720.00
2018-07-22T07:11:04.194Z,24896.00
2018-07-22T07:12:04.193Z,26816.00
2018-07-22T07:13:04.194Z,27520.00
2018-07-22T07:14:04.198Z,30272.00
2018-07-22T07:15:04.203Z,33312.00
2018-07-22T07:16:04.279Z,33344.00
2018-07-22T07:17:04.210Z,31232.00
2018-07-22T07:18:04.217Z,29440.00
2018-07-22T07:19:04.218Z,27136.00
2018-07-22T07:20:04.224Z,26368.00
2018-07-22T07:21:04.230Z,24768.00
2018-07-22T07:22:04.245Z,20768.00
2018-07-22T07:23:04.242Z,16800.00
2018-07-22T07:24:04.248Z,14500.00
2018-07-22T07:25:04.254Z,13656.00
2018-07-22T07:26:04.258Z,13244.00
2018-07-22T07:27:04.270Z,13888.00
2018-07-22T07:28:04.270Z,14612.00
2018-07-22T07:29:04.274Z,15312.00
2018-07-22T07:30:04.286Z,16672.00
2018-07-22T07:31:04.288Z,17408.00
2018-07-22T07:32:04.292Z,17600.00
2018-07-22T07:33:04.299Z,19648.00
2018-07-22T07:34:04.308Z,19776.00
2018-07-22T07:35:04.312Z,23648.00
2018-07-22T07:36:04.318Z,23872.00
2018-07-22T07:37:04.324Z,25536.00
2018-07-22T07:38:04.330Z,22016.00
2018-07-22T07:39:04.334Z,19968.00
2018-07-22T07:40:04.344Z,20064.00
2018-07-22T07:41:04.363Z,19200.00
2018-07-22T07:42:04.363Z,20480.00
2018-07-22T07:43:04.362Z,19296.00
2018-07-22T07:44:04.364Z,18528.00
2018-07-22T07:45:04.373Z,19136.00
2018-07-22T07:46:04.378Z,19200.00
2018-07-22T07:47:04.398Z,21664.00
2018-07-22T07:48:04.393Z,23552.00
2018-07-22T07:49:04.399Z,24800.00
2018-07-22T07:50:04.406Z,26176.00
2018-07-22T07:51:04.418Z,25472.00
2018-07-22T07:52:04.420Z,23008.00
2018-07-22T07:53:04.426Z,23328.00
2018-07-22T07:54:04.442Z,19488.00
2018-07-22T07:55:04.436Z,19616.00
2018-07-22T07:56:04.442Z,21984.00
2018-07-22T07:57:04.449Z,22336.00
2018-07-22T07:58:04.456Z,22656.00
2018-07-22T07:59:04.461Z,22912.00
2018-07-22T08:00:04.475Z,23200.00
2018-07-22T08:01:04.476Z,20544.00
2018-07-22T08:02:04.482Z,21504.00
2018-07-22T08:03:04.491Z,26144.00
2018-07-22T08:04:04.500Z,29184.00
2018-07-22T08:05:04.506Z,30560.00
2018-07-22T08:06:04.513Z,35776.00
2018-07-22T08:07:04.520Z,39520.00
2018-07-22T08:08:04.545Z,43168.00
2018-07-22T08:09:04.548Z,42784.00
2018-07-22T08:10:04.543Z,37856.00
2018-07-22T08:11:04.550Z,47936.00
2018-07-22T08:12:04.558Z,44416.00
2018-07-22T08:13:04.565Z,39328.00
2018-07-22T08:14:04.573Z,31488.00
2018-07-22T08:15:04.584Z,38016.00
2018-07-22T08:16:04.591Z,37248.00
2018-07-22T08:17:04.597Z,37280.00
2018-07-22T08:18:04.605Z,34144.00
2018-07-22T08:19:04.642Z,35424.00
2018-07-22T08:20:04.624Z,32160.00
2018-07-22T08:21:04.630Z,32864.00
2018-07-22T08:22:04.654Z,30784.00
2018-07-22T08:23:04.647Z,36384.00
2018-07-22T08:24:04.655Z,45056.00
2018-07-22T08:25:04.669Z,50080.00
2018-07-22T08:26:04.737Z,51360.00
2018-07-22T08:27:04.716Z,52672.00
2018-07-22T08:28:04.695Z,51136.00
2018-07-22T08:29:04.708Z,47872.00
2018-07-22T08:30:04.715Z,49248.00
2018-07-22T08:31:04.723Z,46816.00
2018-07-22T08:32:04.736Z,44512.00
2018-07-22T08:33:04.748Z,47008.00
2018-07-22T08:34:04.753Z,46336.00
2018-07-22T08:35:04.765Z,36256.00
2018-07-22T08:36:04.800Z,31360.00
2018-07-22T08:37:04.811Z,41376.00
2018-07-22T08:38:04.802Z,49120.00
2018-07-22T08:39:04.804Z,49792.00
2018-07-22T08:40:04.817Z,42944.00
2018-07-22T08:41:04.842Z,45600.00
2018-07-22T08:42:04.832Z,30976.00
2018-07-22T08:43:04.849Z,31424.00
2018-07-22T08:44:04.855Z,28256.00
2018-07-22T08:45:04.866Z,31680.00
2018-07-22T08:46:04.879Z,34880.00
2018-07-22T08:47:04.887Z,34976.00
2018-07-22T08:48:04.900Z,26656.00
2018-07-22T08:49:04.912Z,26112.00
2018-07-22T08:50:04.920Z,29120.00
2018-07-22T08:51:04.928Z,42592.00
2018-07-22T08:52:04.939Z,42496.00
2018-07-22T08:53:04.959Z,34848.00
2018-07-22T08:54:04.958Z,34400.00
2018-07-22T08:55:04.966Z,21888.00
2018-07-22T08:56:04.977Z,20416.00
2018-07-22T08:57:04.992Z,18496.00
2018-07-22T08:58:04.997Z,17440.00
2018-07-22T08:59:05.071Z,19552.00
2018-07-22T09:00:05.018Z,19552.00
2018-07-22T09:01:05.029Z,20192.00
2018-07-22T09:02:05.040Z,17600.00
2018-07-22T09:03:05.048Z,16896.00
2018-07-22T09:04:05.064Z,16192.00
2018-07-22T09:05:05.066Z,15840.00
2018-07-22T09:06:05.132Z,15404.00
2018-07-22T09:07:05.083Z,14916.00
2018-07-22T09:08:05.094Z,14728.00
2018-07-22T09:09:05.132Z,14580.00
2018-07-22T09:10:05.109Z,14580.00
2018-07-22T09:11:05.119Z,14412.00
2018-07-22T09:12:05.132Z,14408.00
2018-07-22T09:13:05.137Z,14352.00
2018-07-22T09:14:05.145Z,14052.00
2018-07-22T09:15:05.152Z,13572.00
2018-07-22T09:16:05.161Z,13388.00
2018-07-22T09:17:05.172Z,13448.00
2018-07-22T09:18:05.198Z,13656.00
2018-07-22T09:19:05.187Z,13724.00
2018-07-22T09:20:05.193Z,13916.00
2018-07-22T09:21:05.200Z,14068.00
2018-07-22T09:22:05.207Z,14216.00
2018-07-22T09:23:05.216Z,14408.00
2018-07-22T09:24:05.223Z,14612.00
2018-07-22T09:25:05.232Z,14760.00
2018-07-22T09:26:05.241Z,14872.00
2018-07-22T09:27:05.252Z,14908.00
2018-07-22T09:28:05.255Z,14848.00
2018-07-22T09:29:05.264Z,14732.00
2018-07-22T09:30:05.270Z,14576.00
2018-07-22T09:31:05.280Z,14444.00
2018-07-22T09:32:05.286Z,14416.00
2018-07-22T09:33:05.295Z,14480.00
2018-07-22T09:34:05.302Z,14552.00
2018-07-22T09:35:05.308Z,14588.00
2018-07-22T09:36:05.449Z,14620.00
2018-07-22T09:37:05.325Z,14600.00
2018-07-22T09:38:05.334Z,14616.00
2018-07-22T09:39:05.338Z,14692.00
2018-07-22T09:40:05.348Z,14752.00
2018-07-22T09:41:05.357Z,14960.00
2018-07-22T09:42:05.363Z,15184.00
2018-07-22T09:43:05.374Z,15276.00
2018-07-22T09:44:05.384Z,15360.00
2018-07-22T09:45:05.402Z,15324.00
2018-07-22T09:46:05.392Z,14796.00
2018-07-22T09:47:05.414Z,14180.00
2018-07-22T09:48:05.458Z,13816.00
2018-07-22T09:49:05.419Z,13684.00
2018-07-22T09:50:05.423Z,13764.00
2018-07-22T09:51:05.430Z,13928.00
2018-07-22T09:52:05.440Z,14160.00
2018-07-22T09:53:05.449Z,14584.00
2018-07-22T09:54:05.456Z,14888.00
2018-07-22T09:55:05.462Z,15284.00
2018-07-22T09:56:05.468Z,15676.00
2018-07-22T09:57:05.475Z,16128.00
2018-07-22T09:58:05.484Z,15904.00
2018-07-22T09:59:05.500Z,16096.00
2018-07-22T10:00:05.500Z,16064.00
2018-07-22T10:01:05.530Z,15752.00
2018-07-22T10:02:05.514Z,15656.00
2018-07-22T10:03:05.524Z,15328.00
2018-07-22T10:04:05.529Z,14936.00
2018-07-22T10:05:05.537Z,14512.00
2018-07-22T10:06:05.545Z,14140.00
2018-07-22T10:07:05.550Z,13876.00
2018-07-22T10:08:05.558Z,13684.00
2018-07-22T10:09:05.567Z,13464.00
2018-07-22T10:10:05.577Z,13200.00
2018-07-22T10:11:05.609Z,13024.00
2018-07-22T10:12:05.591Z,12948.00
2018-07-22T10:13:05.616Z,12948.00
2018-07-22T10:14:05.606Z,13012.00
2018-07-22T10:15:05.610Z,12980.00
2018-07-22T10:16:05.618Z,13088.00
2018-07-22T10:17:05.629Z,13276.00
2018-07-22T10:18:05.633Z,13532.00
2018-07-22T10:19:05.640Z,13672.00
2018-07-22T10:20:05.649Z,13812.00
2018-07-22T10:21:05.659Z,13956.00
2018-07-22T10:22:05.667Z,13956.00
2018-07-22T10:23:05.674Z,13672.00
2018-07-22T10:24:05.681Z,13440.00
2018-07-22T10:25:05.691Z,13176.00
2018-07-22T10:26:05.697Z,12988.00
2018-07-22T10:27:05.705Z,12904.00
2018-07-22T10:28:05.711Z,12920.00
2018-07-22T10:29:05.719Z,12836.00
2018-07-22T10:30:05.726Z,12840.00
2018-07-22T10:31:05.738Z,12740.00
2018-07-22T10:32:05.742Z,12724.00
2018-07-22T10:33:05.748Z,12772.00
2018-07-22T10:34:05.798Z,12804.00
2018-07-22T10:35:05.763Z,12920.00
2018-07-22T10:36:05.771Z,13040.00
2018-07-22T10:37:05.775Z,13132.00
2018-07-22T10:38:05.801Z,13364.00
2018-07-22T10:39:05.793Z,13648.00
2018-07-22T10:40:05.801Z,13708.00
2018-07-22T10:41:05.810Z,13616.00
2018-07-22T10:42:05.818Z,13700.00
2018-07-22T10:43:05.855Z,13676.00
2018-07-22T10:44:05.831Z,13420.00
2018-07-22T10:45:05.838Z,13176.00
2018-07-22T10:46:05.846Z,13004.00
2018-07-22T10:47:05.852Z,12928.00
2018-07-22T10:48:05.925Z,12884.00
2018-07-22T10:49:05.866Z,12860.00
2018-07-22T10:50:05.875Z,12820.00
2018-07-22T10:51:05.954Z,12760.00
2018-07-22T10:52:05.893Z,12716.00
2018-07-22T10:53:05.901Z,12692.00
2018-07-22T10:54:05.907Z,12688.00
2018-07-22T10:55:05.911Z,12712.00
2018-07-22T10:56:05.916Z,12728.00
2018-07-22T10:57:05.928Z,12756.00
2018-07-22T10:58:05.931Z,12792.00
2018-07-22T10:59:05.938Z,12812.00
2018-07-22T11:00:05.945Z,12724.00
2018-07-22T11:01:05.955Z,12596.00
2018-07-22T11:02:05.964Z,12392.00
2018-07-22T11:03:05.970Z,12224.00
2018-07-22T11:04:05.977Z,12164.00
2018-07-22T11:05:05.984Z,12236.00
2018-07-22T11:06:05.992Z,12320.00
2018-07-22T11:07:05.999Z,12428.00
2018-07-22T11:08:06.005Z,12432.00
2018-07-22T11:09:06.013Z,12388.00
2018-07-22T11:10:06.023Z,12300.00
2018-07-22T11:11:06.026Z,12312.00
2018-07-22T11:12:06.033Z,12408.00
2018-07-22T11:13:06.035Z,12500.00
2018-07-22T11:14:06.101Z,12664.00
2018-07-22T11:15:06.053Z,12816.00
2018-07-22T11:16:06.065Z,12940.00
2018-07-22T11:17:06.073Z,13048.00
2018-07-22T11:18:06.079Z,13020.00
2018-07-22T11:19:06.086Z,12908.00
2018-07-22T11:20:06.091Z,12816.00
2018-07-22T11:21:06.173Z,12632.00
2018-07-22T11:22:06.117Z,12464.00
2018-07-22T11:23:06.111Z,12380.00
2018-07-22T11:24:06.122Z,12360.00
2018-07-22T11:25:06.128Z,12400.00
2018-07-22T11:26:06.131Z,12472.00
2018-07-22T11:27:06.138Z,12580.00
2018-07-22T11:28:06.144Z,12728.00
2018-07-22T11:29:06.247Z,12856.00
2018-07-22T11:30:06.159Z,12940.00
2018-07-22T11:31:06.175Z,12952.00
2018-07-22T11:32:06.172Z,12780.00
2018-07-22T11:33:06.179Z,12624.00
2018-07-22T11:34:06.186Z,12444.00
2018-07-22T11:35:06.268Z,12200.00
2018-07-22T11:36:06.260Z,12012.00
2018-07-22T11:37:06.208Z,11944.00
2018-07-22T11:38:06.224Z,11972.00
2018-07-22T11:39:06.223Z,11924.00
2018-07-22T11:40:06.228Z,11796.00
2018-07-22T11:41:06.236Z,11592.00
2018-07-22T11:42:06.245Z,11364.00
2018-07-22T11:43:06.252Z,11212.00
2018-07-22T11:44:06.257Z,11132.00
2018-07-22T11:45:06.264Z,11076.00
2018-07-22T11:46:06.271Z,11004.00
2018-07-22T11:47:06.282Z,10928.00
2018-07-22T11:48:06.284Z,10852.00
2018-07-22T11:49:06.295Z,10820.00
2018-07-22T11:50:06.301Z,10872.00
2018-07-22T11:51:06.305Z,10948.00
2018-07-22T11:52:06.313Z,11044.00
2018-07-22T11:53:06.319Z,11112.00
2018-07-22T11:54:06.329Z,11188.00
2018-07-22T11:55:06.335Z,11276.00
2018-07-22T11:56:06.341Z,11340.00
2018-07-22T11:57:06.377Z,11412.00
2018-07-22T11:58:06.354Z,11520.00
2018-07-22T11:59:06.360Z,11684.00
2018-07-22T12:00:06.426Z,11844.00
2018-07-22T12:01:06.374Z,11972.00
2018-07-22T12:02:06.395Z,12064.00
2018-07-22T12:03:06.387Z,12100.00
2018-07-22T12:04:06.396Z,12128.00
2018-07-22T12:05:06.404Z,12180.00
2018-07-22T12:06:06.410Z,12348.00
2018-07-22T12:07:06.416Z,12644.00
2018-07-22T12:08:06.423Z,13032.00
2018-07-22T12:09:06.430Z,13416.00
2018-07-22T12:10:06.436Z,13636.00
2018-07-22T12:11:06.445Z,13668.00
2018-07-22T12:12:06.452Z,13444.00
2018-07-22T12:13:06.457Z,13148.00
2018-07-22T12:14:06.464Z,12908.00